Time;durP1;ratioP1;P1;durP2;ratioP2;P2;SDS_P1;SDS_P2;PMS_P1;PMS_P2;Temp;Humidity;BMP_temperature;BMP_pressure;BME280_temperature;BME280_humidity;BME280_pressure;Samples;Min_cycle;Max_cycle;Signal;HPM_P1;HPM_P2
2023/07/31 00:02:15;;;;;;;4.72;1.80;;;24.40;91.50;;;;;;5092250;28;20361;-82
2023/07/31 00:04:40;;;;;;;4.55;1.70;;;24.40;91.40;;;;;;5092577;28;20356;-82
2023/07/31 00:07:06;;;;;;;9.35;2.58;;;24.40;91.40;;;;;;5074560;28;20016;-82
2023/07/31 00:09:33;;;;;;;6.68;2.00;;;24.30;91.30;;;;;;5092661;28;20024;-82
2023/07/31 00:11:59;;;;;;;6.90;2.10;;;24.30;91.50;;;;;;5092201;28;20051;-82
2023/07/31 00:14:25;;;;;;;8.45;2.50;;;24.30;91.80;;;;;;5094809;28;20028;-82
2023/07/31 00:16:50;;;;;;;5.40;2.40;;;24.30;91.90;;;;;;5096513;28;20023;-82
2023/07/31 00:19:16;;;;;;;8.98;2.88;;;24.20;92.00;;;;;;5096465;28;20386;-83
2023/07/31 00:21:42;;;;;;;5.75;2.10;;;24.20;92.20;;;;;;5096638;28;20073;-82
2023/07/31 00:24:08;;;;;;;5.10;2.10;;;24.20;92.30;;;;;;5077911;28;20036;-82
2023/07/31 00:26:33;;;;;;;4.82;1.95;;;24.20;92.40;;;;;;5096265;28;20048;-83
2023/07/31 00:28:59;;;;;;;8.57;2.20;;;24.20;92.40;;;;;;5096131;28;20028;-82
2023/07/31 00:31:25;;;;;;;6.90;1.83;;;24.10;92.40;;;;;;5096143;28;20055;-82
2023/07/31 00:33:50;;;;;;;7.82;1.80;;;24.10;92.50;;;;;;5096329;28;20028;-82
2023/07/31 00:36:17;;;;;;;4.70;1.60;;;24.10;92.40;;;;;;5096026;28;20376;-83
2023/07/31 00:38:43;;;;;;;5.13;1.67;;;24.10;92.40;;;;;;5095978;28;20036;-82
2023/07/31 00:41:09;;;;;;;4.97;1.73;;;24.00;92.30;;;;;;5095738;28;20019;-82
2023/07/31 00:43:35;;;;;;;3.00;1.70;;;24.00;92.30;;;;;;5095958;28;20032;-82
2023/07/31 00:46:01;;;;;;;1.85;1.52;;;24.00;92.20;;;;;;5094698;28;20430;-82
2023/07/31 00:48:27;;;;;;;5.93;1.83;;;24.00;92.30;;;;;;5095658;28;20052;-82
2023/07/31 00:50:52;;;;;;;2.60;1.75;;;24.00;92.30;;;;;;5095964;28;20107;-82
2023/07/31 00:53:18;;;;;;;4.53;1.98;;;24.00;92.40;;;;;;5095764;28;20625;-82
2023/07/31 00:55:45;;;;;;;3.00;1.67;;;23.90;92.30;;;;;;5095915;28;20024;-83
2023/07/31 00:58:10;;;;;;;5.07;1.70;;;23.90;92.20;;;;;;5094061;28;20028;-82
2023/07/31 01:00:36;;;;;;;3.33;1.73;;;24.00;92.20;;;;;;5092649;28;20036;-82
2023/07/31 01:03:02;;;;;;;5.97;1.58;;;23.90;92.00;;;;;;5092860;28;20029;-82
2023/07/31 01:05:52;;;;;;;5.65;1.58;;;23.90;91.90;;;;;;5076464;28;20043;-82
2023/07/31 01:08:23;;;;;;;2.63;1.63;;;23.90;91.90;;;;;;5095512;28;20024;-82
2023/07/31 01:10:55;;;;;;;3.58;1.35;;;23.90;91.90;;;;;;5095001;28;20028;-82
2023/07/31 01:13:21;;;;;;;3.63;1.85;;;23.90;91.60;;;;;;5094894;28;20058;-82
2023/07/31 01:15:47;;;;;;;7.45;1.83;;;23.90;91.50;;;;;;5095373;28;20055;-82
2023/07/31 01:18:13;;;;;;;2.95;1.52;;;23.90;91.30;;;;;;5095365;28;20016;-81
2023/07/31 01:20:42;;;;;;;3.53;1.48;;;23.90;91.20;;;;;;5094801;28;20063;-82
2023/07/31 01:23:30;;;;;;;2.58;1.40;;;23.90;91.20;;;;;;5095144;28;20031;-82
2023/07/31 01:26:15;;;;;;;2.15;1.40;;;23.90;91.00;;;;;;5075611;28;20028;-82
2023/07/31 01:28:54;;;;;;;2.08;1.40;;;23.90;90.60;;;;;;5094862;28;20029;-82
2023/07/31 01:31:27;;;;;;;3.17;1.30;;;23.90;90.50;;;;;;5095096;28;20028;-82
2023/07/31 01:33:57;;;;;;;2.72;1.30;;;23.90;90.50;;;;;;5094986;28;20467;-82
2023/07/31 01:36:24;;;;;;;3.67;1.58;;;23.90;90.60;;;;;;5094704;28;20468;-82
2023/07/31 01:38:50;;;;;;;1.88;1.30;;;23.90;90.60;;;;;;5076675;28;20063;-82
2023/07/31 01:41:19;;;;;;;2.47;1.52;;;24.00;90.70;;;;;;5094666;28;20023;-82
2023/07/31 01:43:47;;;;;;;3.72;1.75;;;23.90;90.60;;;;;;5094951;28;20032;-83
2023/07/31 01:46:13;;;;;;;4.68;1.70;;;23.90;90.70;;;;;;5094716;28;20024;-82
2023/07/31 01:48:39;;;;;;;2.75;1.30;;;23.90;90.80;;;;;;5094601;28;20050;-82
2023/07/31 01:51:04;;;;;;;2.28;1.40;;;23.90;90.90;;;;;;5076562;28;20078;-82
2023/07/31 01:53:31;;;;;;;6.20;1.42;;;23.90;90.80;;;;;;5094630;28;20090;-82
2023/07/31 01:55:57;;;;;;;3.85;1.40;;;23.90;90.80;;;;;;5094408;28;20472;-82
2023/07/31 01:58:23;;;;;;;6.05;1.50;;;23.90;90.70;;;;;;5076305;28;20034;-82
2023/07/31 02:00:49;;;;;;;4.65;1.45;;;23.80;90.60;;;;;;5094403;28;20106;-82
2023/07/31 02:03:14;;;;;;;4.88;1.20;;;23.80;90.60;;;;;;5094182;28;20020;-82
2023/07/31 02:05:49;;;;;;;1.50;1.30;;;23.80;90.60;;;;;;5094550;28;20159;-82
2023/07/31 02:08:15;;;;;;;7.03;1.48;;;23.80;90.60;;;;;;5094384;28;20387;-82
2023/07/31 02:10:41;;;;;;;2.55;1.33;;;23.80;90.60;;;;;;5093930;28;20085;-82
2023/07/31 02:13:07;;;;;;;5.72;1.83;;;23.80;90.70;;;;;;5075344;28;20028;-82
2023/07/31 02:15:33;;;;;;;5.70;1.60;;;23.80;90.80;;;;;;5093695;28;20040;-82
2023/07/31 02:17:59;;;;;;;5.30;1.60;;;23.80;90.80;;;;;;5094162;28;20353;-82
2023/07/31 02:20:25;;;;;;;5.00;1.42;;;23.80;90.80;;;;;;5093936;28;20032;-82
2023/07/31 02:22:51;;;;;;;6.47;1.60;;;23.70;90.80;;;;;;5093908;28;20107;-82
2023/07/31 02:25:17;;;;;;;3.72;1.35;;;23.70;90.80;;;;;;5094032;28;20590;-82
2023/07/31 02:27:42;;;;;;;6.03;1.50;;;23.70;90.80;;;;;;5094247;28;20020;-82
2023/07/31 02:30:09;;;;;;;2.67;1.33;;;23.70;90.80;;;;;;5093934;28;20117;-81
2023/07/31 02:32:35;;;;;;;2.92;1.40;;;23.70;90.90;;;;;;5093792;28;20024;-82
2023/07/31 02:35:00;;;;;;;5.10;1.95;;;23.70;90.90;;;;;;5093480;28;20153;-82
2023/07/31 02:37:28;;;;;;;3.58;1.58;;;23.60;90.90;;;;;;5093460;28;20023;-82
2023/07/31 02:39:54;;;;;;;4.15;1.50;;;23.60;90.90;;;;;;5093723;28;20039;-82
2023/07/31 02:42:20;;;;;;;3.25;1.40;;;23.60;91.00;;;;;;5093731;28;20044;-82
2023/07/31 02:44:45;;;;;;;4.18;1.70;;;23.60;91.00;;;;;;5093213;28;20036;-82
2023/07/31 02:47:11;;;;;;;6.07;1.70;;;23.60;91.00;;;;;;5093694;28;20039;-82
2023/07/31 02:49:37;;;;;;;5.47;1.63;;;23.50;91.00;;;;;;5093712;28;20039;-81
2023/07/31 02:52:03;;;;;;;1.85;1.38;;;23.50;91.00;;;;;;5093517;28;20103;-82
2023/07/31 02:54:29;;;;;;;2.53;1.20;;;23.50;91.10;;;;;;5093689;28;20030;-82
2023/07/31 02:56:54;;;;;;;3.13;1.55;;;23.60;91.10;;;;;;5093439;28;20106;-82
2023/07/31 02:59:20;;;;;;;5.35;1.40;;;23.50;91.00;;;;;;5093222;28;20399;-82
2023/07/31 03:01:46;;;;;;;4.72;1.50;;;23.50;91.00;;;;;;5075384;28;20077;-81
2023/07/31 03:04:12;;;;;;;2.65;1.50;;;23.50;91.00;;;;;;5093559;28;20024;-82
2023/07/31 03:06:37;;;;;;;3.72;1.80;;;23.50;91.00;;;;;;5093455;28;20070;-82
2023/07/31 03:09:03;;;;;;;3.30;1.35;;;23.50;91.00;;;;;;5093184;28;20028;-82
2023/07/31 03:11:29;;;;;;;5.90;1.60;;;23.50;90.90;;;;;;5092943;28;20024;-82
2023/07/31 03:13:55;;;;;;;1.25;1.15;;;23.50;90.90;;;;;;5093185;28;20024;-82
2023/07/31 03:16:20;;;;;;;4.03;1.60;;;23.50;90.90;;;;;;5093077;28;20489;-82
2023/07/31 03:18:46;;;;;;;3.70;1.73;;;23.40;90.90;;;;;;5093092;28;20028;-82
2023/07/31 03:21:12;;;;;;;3.47;1.40;;;23.40;90.90;;;;;;5092749;28;20024;-82
2023/07/31 03:23:38;;;;;;;3.63;1.45;;;23.40;90.90;;;;;;5091448;28;20051;-82
2023/07/31 03:26:07;;;;;;;5.75;1.58;;;23.40;90.90;;;;;;5074497;28;20106;-82
2023/07/31 03:28:33;;;;;;;2.97;1.45;;;23.40;91.00;;;;;;5092866;28;20020;-82
2023/07/31 03:30:59;;;;;;;4.38;1.17;;;23.40;91.00;;;;;;5091629;28;20034;-82
2023/07/31 03:33:25;;;;;;;4.40;1.40;;;23.40;91.00;;;;;;5091667;28;20050;-82
2023/07/31 03:35:51;;;;;;;1.60;1.27;;;23.40;91.00;;;;;;5092591;28;20024;-82
2023/07/31 03:38:17;;;;;;;3.55;1.70;;;23.40;91.00;;;;;;5092706;28;20069;-82
2023/07/31 03:40:43;;;;;;;2.60;1.50;;;23.40;90.90;;;;;;5092531;28;20032;-82
2023/07/31 03:43:08;;;;;;;3.92;1.48;;;23.40;90.90;;;;;;5092503;28;20044;-81
2023/07/31 03:45:34;;;;;;;2.08;1.30;;;23.40;90.90;;;;;;5092749;28;20042;-82
2023/07/31 03:48:00;;;;;;;2.08;1.23;;;23.40;90.80;;;;;;5093002;28;20032;-83
2023/07/31 03:50:26;;;;;;;5.85;1.55;;;23.30;90.70;;;;;;5097166;28;20059;-82
2023/07/31 03:52:52;;;;;;;5.25;1.65;;;23.30;90.70;;;;;;5095456;28;20020;-82
2023/07/31 03:55:18;;;;;;;4.07;1.40;;;23.40;90.70;;;;;;5096579;28;20032;-82
2023/07/31 03:57:44;;;;;;;2.22;1.52;;;23.40;90.70;;;;;;5096536;28;20387;-82
2023/07/31 04:00:10;;;;;;;2.63;1.80;;;23.40;90.70;;;;;;5096750;28;20048;-82
2023/07/31 04:02:36;;;;;;;3.40;1.70;;;23.30;90.60;;;;;;5096989;28;20048;-82
2023/07/31 04:05:02;;;;;;;2.00;1.48;;;23.40;90.60;;;;;;5096757;28;20082;-82
2023/07/31 04:07:27;;;;;;;3.08;1.25;;;23.40;90.60;;;;;;5096614;28;20020;-82
2023/07/31 04:09:53;;;;;;;4.72;1.60;;;23.30;90.50;;;;;;5096541;28;20039;-82
2023/07/31 04:12:19;;;;;;;5.47;1.60;;;23.40;90.60;;;;;;5096290;28;20383;-82
2023/07/31 04:14:44;;;;;;;2.83;1.27;;;23.40;90.50;;;;;;5095190;28;20149;-82
2023/07/31 04:17:10;;;;;;;7.70;1.70;;;23.40;90.50;;;;;;5096355;28;20019;-82
2023/07/31 04:19:36;;;;;;;4.68;1.67;;;23.40;90.50;;;;;;5096341;28;20098;-82
2023/07/31 04:22:02;;;;;;;2.28;1.23;;;23.30;90.50;;;;;;5096298;28;20043;-82
2023/07/31 04:24:27;;;;;;;4.30;1.60;;;23.40;90.60;;;;;;5095617;28;20035;-78
2023/07/31 04:26:53;;;;;;;3.00;1.50;;;23.40;90.60;;;;;;5095589;28;20412;-78
2023/07/31 04:29:20;;;;;;;3.50;1.38;;;23.30;90.60;;;;;;5096163;28;20025;-78
2023/07/31 04:31:47;;;;;;;5.22;1.85;;;23.30;90.70;;;;;;5096095;28;20069;-78
2023/07/31 04:34:13;;;;;;;1.88;1.30;;;23.30;90.60;;;;;;5095876;28;20522;-78
2023/07/31 04:36:38;;;;;;;2.08;1.40;;;23.30;90.60;;;;;;5096172;28;20020;-78
2023/07/31 04:39:04;;;;;;;2.47;1.48;;;23.30;90.60;;;;;;5095933;28;20085;-78
2023/07/31 04:41:30;;;;;;;4.07;1.60;;;23.30;90.60;;;;;;5094544;28;20032;-78
2023/07/31 04:43:56;;;;;;;6.13;1.52;;;23.30;90.50;;;;;;5095222;28;20043;-78
2023/07/31 04:46:21;;;;;;;6.60;1.52;;;23.40;90.50;;;;;;5095939;28;20099;-78
2023/07/31 04:48:47;;;;;;;3.55;1.60;;;23.40;90.40;;;;;;5095761;28;20024;-78
2023/07/31 04:51:13;;;;;;;2.25;1.30;;;23.40;90.40;;;;;;5095639;28;20028;-78
2023/07/31 04:53:39;;;;;;;3.30;1.58;;;23.40;90.30;;;;;;5077601;28;20020;-78
2023/07/31 04:56:04;;;;;;;4.10;1.40;;;23.40;90.20;;;;;;5097584;28;20047;-79
2023/07/31 04:58:30;;;;;;;3.95;1.30;;;23.40;90.10;;;;;;5095323;28;20024;-78
2023/07/31 05:00:56;;;;;;;2.35;1.40;;;23.40;89.90;;;;;;5095729;28;20066;-78
2023/07/31 05:03:22;;;;;;;3.40;1.50;;;23.50;89.60;;;;;;5095720;28;20020;-78
2023/07/31 05:05:47;;;;;;;4.10;1.50;;;23.50;89.60;;;;;;5095645;28;20035;-78
2023/07/31 05:08:13;;;;;;;2.08;1.42;;;23.50;89.90;;;;;;5095718;28;20028;-78
2023/07/31 05:10:39;;;;;;;2.10;1.40;;;23.50;90.00;;;;;;5095529;28;20020;-78
2023/07/31 05:13:05;;;;;;;5.65;1.58;;;23.50;90.20;;;;;;5095758;28;20039;-78
2023/07/31 05:15:31;;;;;;;3.90;1.80;;;23.50;90.10;;;;;;5077593;28;20485;-78
2023/07/31 05:17:56;;;;;;;5.68;1.45;;;23.50;90.00;;;;;;5095791;28;20055;-78
2023/07/31 05:20:22;;;;;;;1.65;1.17;;;23.50;89.90;;;;;;5095280;28;20090;-79
2023/07/31 05:22:48;;;;;;;2.42;1.40;;;23.60;89.90;;;;;;5095145;28;20031;-79
2023/07/31 05:25:14;;;;;;;3.58;1.30;;;23.60;89.90;;;;;;5095516;28;20032;-78
2023/07/31 05:27:39;;;;;;;1.70;1.27;;;23.60;89.50;;;;;;5094980;28;20418;-78
2023/07/31 05:30:06;;;;;;;2.67;1.33;;;23.60;89.00;;;;;;5095082;28;20060;-78
2023/07/31 05:32:31;;;;;;;2.53;1.30;;;23.70;88.70;;;;;;5094172;28;20032;-78
2023/07/31 05:34:57;;;;;;;2.13;1.60;;;23.70;88.30;;;;;;5093559;28;20032;-78
2023/07/31 05:37:23;;;;;;;1.75;1.40;;;23.70;87.90;;;;;;5095091;28;20059;-78
2023/07/31 05:39:49;;;;;;;3.75;1.38;;;23.70;87.70;;;;;;5094947;28;20031;-77
2023/07/31 05:42:18;;;;;;;2.80;1.50;;;23.80;87.40;;;;;;5104344;28;20048;-78
2023/07/31 05:44:44;;;;;;;1.55;1.20;;;23.80;87.30;;;;;;5115186;28;20035;-78
2023/07/31 05:47:10;;;;;;;4.68;1.20;;;23.90;86.90;;;;;;5115240;28;20401;-78
2023/07/31 05:49:35;;;;;;;3.65;1.67;;;23.90;86.30;;;;;;5115055;28;20034;-78
2023/07/31 05:52:01;;;;;;;2.42;1.30;;;23.90;86.30;;;;;;5096267;28;20050;-79
2023/07/31 05:54:27;;;;;;;3.15;1.30;;;23.90;86.20;;;;;;5114834;28;20031;-78
2023/07/31 05:56:59;;;;;;;3.80;1.60;;;24.00;86.00;;;;;;5115003;28;20024;-77
2023/07/31 05:59:25;;;;;;;2.45;1.52;;;24.00;85.90;;;;;;5113545;28;20097;-77
2023/07/31 06:01:51;;;;;;;2.00;1.48;;;24.00;85.60;;;;;;5114807;28;20066;-78
2023/07/31 06:04:17;;;;;;;4.05;1.30;;;24.00;85.50;;;;;;5114342;28;20422;-77
2023/07/31 06:06:43;;;;;;;2.60;1.50;;;24.10;85.50;;;;;;5114721;28;20027;-78
2023/07/31 06:09:09;;;;;;;1.92;1.30;;;24.10;85.60;;;;;;5114693;28;20047;-78
2023/07/31 06:11:34;;;;;;;5.18;1.50;;;24.20;84.80;;;;;;5114212;28;20031;-78
2023/07/31 06:14:00;;;;;;;5.32;1.20;;;24.20;84.40;;;;;;5096366;28;20058;-78
2023/07/31 06:16:27;;;;;;;3.33;1.30;;;24.20;84.40;;;;;;5114537;28;20078;-78
2023/07/31 06:18:52;;;;;;;2.90;1.45;;;24.30;84.60;;;;;;5114215;28;20467;-78
2023/07/31 06:21:18;;;;;;;2.35;1.30;;;24.30;85.00;;;;;;5114244;28;20035;-80
2023/07/31 06:23:44;;;;;;;4.40;1.33;;;24.30;84.60;;;;;;5114292;28;20016;-81
2023/07/31 06:26:10;;;;;;;2.13;1.67;;;24.40;84.60;;;;;;5114435;28;20030;-80
2023/07/31 06:28:35;;;;;;;1.60;1.20;;;24.40;84.30;;;;;;5114499;28;20024;-80
2023/07/31 06:31:01;;;;;;;3.20;1.40;;;24.50;83.50;;;;;;5114250;28;20065;-84
2023/07/31 06:33:28;;;;;;;5.03;1.48;;;24.50;83.30;;;;;;5114502;28;20078;-85
2023/07/31 06:35:53;;;;;;;1.80;1.10;;;24.60;82.50;;;;;;5095865;28;20387;-84
2023/07/31 06:38:24;;;;;;;3.85;1.20;;;24.60;82.30;;;;;;5114160;28;20019;-84
2023/07/31 06:40:50;;;;;;;2.28;1.15;;;24.70;82.90;;;;;;5113727;28;20499;-84
2023/07/31 06:43:16;;;;;;;2.05;1.20;;;24.70;82.80;;;;;;5113835;28;20142;-84
2023/07/31 06:45:41;;;;;;;2.03;1.27;;;24.70;82.80;;;;;;5113772;28;20020;-84
2023/07/31 06:48:07;;;;;;;2.05;1.20;;;24.80;82.50;;;;;;5111890;28;20020;-84
2023/07/31 06:50:33;;;;;;;3.28;1.10;;;24.80;82.30;;;;;;5112563;28;20034;-84
2023/07/31 06:52:59;;;;;;;1.95;1.27;;;24.80;81.80;;;;;;5113730;28;20103;-81
2023/07/31 06:55:25;;;;;;;1.48;1.10;;;24.90;81.50;;;;;;5113719;28;20099;-84
2023/07/31 06:57:54;;;;;;;2.47;1.40;;;24.90;82.30;;;;;;5095457;28;20027;-84
2023/07/31 07:00:21;;;;;;;2.30;1.27;;;25.00;80.90;;;;;;5095510;28;20031;-84
2023/07/31 07:02:48;;;;;;;2.05;1.45;;;25.00;80.30;;;;;;5114077;28;20031;-84
2023/07/31 07:05:14;;;;;;;2.17;1.50;;;25.10;80.10;;;;;;5113633;28;20020;-84
2023/07/31 07:07:41;;;;;;;4.57;1.50;;;25.10;80.20;;;;;;5093831;28;20024;-84
2023/07/31 07:10:07;;;;;;;3.15;1.40;;;25.20;79.30;;;;;;5113856;28;20016;-84
2023/07/31 07:12:33;;;;;;;4.28;1.23;;;25.20;78.80;;;;;;5095581;28;20051;-84
2023/07/31 07:15:00;;;;;;;1.98;1.40;;;25.20;78.70;;;;;;5113772;28;20012;-84
2023/07/31 07:17:27;;;;;;;2.03;1.30;;;25.30;78.60;;;;;;5113422;28;20016;-84
2023/07/31 07:19:53;;;;;;;5.28;1.50;;;25.40;79.50;;;;;;5113472;28;20058;-84
2023/07/31 07:22:18;;;;;;;4.28;2.05;;;25.40;78.60;;;;;;5113323;28;20463;-84
2023/07/31 07:24:44;;;;;;;1.48;1.30;;;25.40;78.10;;;;;;5113158;28;20027;-84
2023/07/31 07:27:10;;;;;;;3.75;1.05;;;25.50;78.00;;;;;;5095035;28;20149;-84
2023/07/31 07:29:38;;;;;;;1.83;1.20;;;25.50;77.90;;;;;;5113520;28;20020;-84
2023/07/31 07:32:04;;;;;;;2.78;1.42;;;25.60;77.10;;;;;;5113563;28;20027;-84
2023/07/31 07:34:29;;;;;;;2.72;1.30;;;25.60;77.30;;;;;;5113764;28;20020;-85
2023/07/31 07:36:55;;;;;;;6.55;1.30;;;25.70;76.30;;;;;;5095488;28;20467;-85
2023/07/31 07:39:21;;;;;;;1.60;1.27;;;25.70;76.90;;;;;;5113488;28;20039;-85
2023/07/31 07:41:47;;;;;;;1.25;1.10;;;25.70;76.70;;;;;;5113539;28;20115;-85
2023/07/31 07:44:13;;;;;;;1.65;1.15;;;25.70;76.70;;;;;;5113490;28;20027;-85
2023/07/31 07:46:39;;;;;;;3.78;1.40;;;25.80;76.80;;;;;;5113287;28;20036;-85
2023/07/31 07:49:05;;;;;;;2.60;1.35;;;25.80;75.90;;;;;;5113421;28;20084;-85
2023/07/31 07:51:31;;;;;;;2.92;1.20;;;25.90;76.20;;;;;;5113016;28;20093;-84
2023/07/31 07:54:00;;;;;;;4.13;1.35;;;25.90;74.40;;;;;;5095124;28;20984;-85
2023/07/31 07:56:27;;;;;;;1.48;1.10;;;25.90;75.10;;;;;;5113336;28;20048;-85
2023/07/31 07:58:53;;;;;;;1.83;1.23;;;26.00;74.30;;;;;;5094910;28;20031;-85
2023/07/31 08:01:19;;;;;;;1.67;1.15;;;26.00;75.30;;;;;;5094572;28;20028;-85
2023/07/31 08:03:46;;;;;;;3.13;1.20;;;26.10;74.50;;;;;;5095184;28;20020;-85
2023/07/31 08:06:12;;;;;;;2.85;1.33;;;26.10;74.70;;;;;;5095086;28;20032;-85
2023/07/31 08:08:38;;;;;;;2.67;1.30;;;26.20;73.90;;;;;;5095225;28;20066;-85
2023/07/31 08:11:05;;;;;;;1.80;1.50;;;26.20;74.10;;;;;;5095384;28;20470;-86
2023/07/31 08:13:31;;;;;;;1.60;1.17;;;26.20;74.40;;;;;;5113476;28;20038;-85
2023/07/31 08:15:56;;;;;;;2.33;1.30;;;26.20;74.60;;;;;;5113140;28;20479;-85
2023/07/31 08:18:35;;;;;;;1.38;1.00;;;26.20;74.20;;;;;;5112916;28;20020;-86
2023/07/31 08:21:03;;;;;;;1.30;1.05;;;26.30;73.60;;;;;;5112782;28;20038;-86
2023/07/31 08:23:29;;;;;;;1.88;1.35;;;26.30;72.50;;;;;;5113196;28;20027;-86
2023/07/31 08:26:05;;;;;;;2.17;1.25;;;26.30;72.70;;;;;;5096686;28;20034;-84
2023/07/31 08:28:31;;;;;;;3.55;1.35;;;26.30;72.90;;;;;;5091090;28;20032;-85
2023/07/31 08:30:57;;;;;;;1.25;1.08;;;26.40;71.90;;;;;;5113125;28;20379;-85
2023/07/31 08:33:38;;;;;;;3.35;1.35;;;26.40;73.30;;;;;;5113362;28;20028;-85
2023/07/31 08:36:10;;;;;;;3.83;1.10;;;26.40;72.70;;;;;;5116200;28;20073;-85
2023/07/31 08:38:38;;;;;;;3.13;1.10;;;26.50;73.00;;;;;;5116032;28;20028;-84
2023/07/31 08:41:53;;;;;;;1.17;1.05;;;26.50;73.60;;;;;;5115866;28;20430;-84
2023/07/31 08:44:38;;;;;;;3.10;1.30;;;26.50;73.30;;;;;;5095783;28;20048;-86
2023/07/31 08:47:04;;;;;;;2.10;1.27;;;26.50;72.80;;;;;;5095464;28;20031;-85
2023/07/31 08:49:49;;;;;;;3.08;1.20;;;26.50;72.50;;;;;;5096210;28;20153;-85
2023/07/31 08:52:19;;;;;;;4.47;1.40;;;26.50;71.50;;;;;;5077802;28;20600;-85
2023/07/31 08:54:44;;;;;;;2.30;1.10;;;26.60;72.20;;;;;;5077471;28;20059;-85
2023/07/31 08:57:19;;;;;;;7.82;1.52;;;26.60;72.50;;;;;;5077476;28;20032;-84
2023/07/31 08:59:52;;;;;;;2.00;1.20;;;26.60;71.80;;;;;;5095781;28;20036;-85
2023/07/31 09:02:19;;;;;;;1.80;1.20;;;26.60;73.60;;;;;;5077585;28;20031;-85
2023/07/31 09:05:09;;;;;;;1.25;1.08;;;26.60;72.30;;;;;;5076893;28;20561;-86
2023/07/31 09:07:38;;;;;;;1.40;1.15;;;26.70;72.10;;;;;;5093948;28;20028;-86
2023/07/31 09:10:06;;;;;;;1.33;1.13;;;26.70;72.70;;;;;;5095624;28;20024;-85
2023/07/31 09:12:54;;;;;;;3.60;1.20;;;26.70;73.00;;;;;;5076856;28;20476;-86
2023/07/31 09:15:48;;;;;;;2.70;1.30;;;26.80;73.70;;;;;;5080266;28;20028;-84
2023/07/31 09:18:56;;;;;;;3.97;1.20;;;26.80;72.90;;;;;;5095643;28;20028;-86
2023/07/31 09:21:27;;;;;;;3.08;1.08;;;26.80;71.90;;;;;;5072924;28;20072;-85
2023/07/31 09:24:07;;;;;;;3.22;1.27;;;26.80;72.30;;;;;;5095452;28;20024;-85
2023/07/31 09:26:35;;;;;;;1.55;1.38;;;26.80;72.10;;;;;;5095151;28;20028;-83
2023/07/31 09:29:16;;;;;;;4.30;1.33;;;26.80;71.40;;;;;;5095145;28;20054;-84
2023/07/31 09:31:48;;;;;;;2.47;1.20;;;26.80;71.20;;;;;;5077378;28;20024;-84
2023/07/31 09:34:14;;;;;;;2.25;1.48;;;26.80;71.50;;;;;;5095856;28;20505;-84
2023/07/31 09:36:44;;;;;;;1.27;1.10;;;26.70;71.40;;;;;;5095445;28;20027;-85
2023/07/31 09:39:11;;;;;;;2.25;1.40;;;26.70;72.50;;;;;;5095576;28;20036;-86
2023/07/31 09:41:42;;;;;;;2.05;1.10;;;26.70;72.40;;;;;;5094424;28;20032;-86
2023/07/31 09:44:08;;;;;;;4.03;1.20;;;26.70;72.80;;;;;;5096521;28;20129;-84
2023/07/31 09:46:37;;;;;;;2.95;1.52;;;26.70;73.20;;;;;;5094446;28;20276;-86
2023/07/31 09:49:06;;;;;;;2.15;1.35;;;26.70;72.90;;;;;;5095134;28;20027;-85
2023/07/31 09:51:32;;;;;;;1.95;1.30;;;26.80;72.30;;;;;;5095216;28;20038;-85
2023/07/31 09:53:57;;;;;;;2.55;1.42;;;26.80;71.80;;;;;;5077423;28;20129;-85
2023/07/31 09:56:23;;;;;;;2.35;1.20;;;26.80;72.60;;;;;;5095573;28;20032;-84
2023/07/31 09:58:50;;;;;;;4.22;1.25;;;26.80;73.50;;;;;;5098739;28;20031;-84
2023/07/31 10:01:16;;;;;;;1.67;1.10;;;26.80;73.70;;;;;;5096467;28;20149;-84
2023/07/31 10:03:45;;;;;;;1.63;1.42;;;26.90;73.30;;;;;;5094953;28;20494;-84
2023/07/31 10:06:12;;;;;;;2.33;1.40;;;26.90;74.00;;;;;;5095376;28;20082;-84
2023/07/31 10:08:39;;;;;;;3.05;1.60;;;27.00;72.60;;;;;;5094537;28;20048;-84
2023/07/31 10:11:07;;;;;;;2.38;1.25;;;27.00;73.00;;;;;;5094674;28;20028;-85
2023/07/31 10:13:34;;;;;;;1.27;1.17;;;27.00;72.40;;;;;;5094925;28;20038;-84
2023/07/31 10:16:01;;;;;;;2.40;1.42;;;27.10;72.80;;;;;;5076652;28;20035;-84
2023/07/31 10:18:27;;;;;;;1.77;1.30;;;27.20;72.50;;;;;;5076211;28;20070;-84
2023/07/31 10:20:54;;;;;;;1.42;1.33;;;27.10;72.60;;;;;;5094656;28;20093;-85
2023/07/31 10:23:21;;;;;;;2.25;1.50;;;27.20;73.50;;;;;;5093340;28;20468;-84
2023/07/31 10:25:48;;;;;;;2.03;1.45;;;27.20;73.90;;;;;;5094354;28;20099;-84
2023/07/31 10:28:14;;;;;;;5.35;1.60;;;27.30;73.40;;;;;;5094512;28;20056;-83
2023/07/31 10:30:41;;;;;;;3.05;1.60;;;27.30;71.50;;;;;;5108252;28;20051;-83
2023/07/31 10:33:07;;;;;;;1.88;1.13;;;27.30;71.80;;;;;;5119264;28;20016;-85
2023/07/31 10:35:33;;;;;;;2.25;1.40;;;27.40;72.50;;;;;;5110899;28;20020;-84
2023/07/31 10:38:11;;;;;;;3.17;1.38;;;27.40;71.90;;;;;;5116733;28;20019;-85
2023/07/31 10:40:37;;;;;;;2.47;1.40;;;27.40;72.50;;;;;;5109642;28;20097;-84
2023/07/31 10:43:03;;;;;;;5.32;1.17;;;27.40;73.30;;;;;;5094053;28;20044;-84
2023/07/31 10:45:37;;;;;;;4.28;1.48;;;27.50;72.30;;;;;;5094422;28;20035;-85
2023/07/31 10:48:04;;;;;;;3.00;1.30;;;27.60;72.70;;;;;;5099816;28;20020;-85
2023/07/31 10:50:37;;;;;;;1.60;1.30;;;27.60;73.40;;;;;;5094055;28;20036;-85
2023/07/31 10:53:04;;;;;;;3.45;1.48;;;27.70;74.00;;;;;;5076016;28;20023;-83
2023/07/31 10:55:29;;;;;;;3.70;1.27;;;27.70;73.90;;;;;;5094172;28;20125;-84
2023/07/31 10:58:06;;;;;;;2.65;1.30;;;27.80;70.50;;;;;;5093855;28;20490;-84
2023/07/31 11:00:32;;;;;;;3.05;1.40;;;27.90;71.80;;;;;;5093663;28;20039;-85
2023/07/31 11:03:04;;;;;;;2.00;1.30;;;28.00;71.70;;;;;;5075723;28;20020;-84
2023/07/31 11:05:46;;;;;;;3.95;1.30;;;28.00;71.60;;;;;;5094041;28;20379;-84
2023/07/31 11:08:29;;;;;;;1.45;1.20;;;28.10;72.00;;;;;;5094140;28;20381;-85
2023/07/31 11:11:04;;;;;;;2.00;1.40;;;28.20;71.40;;;;;;5093703;28;20024;-84
2023/07/31 11:13:31;;;;;;;3.00;1.20;;;28.20;70.60;;;;;;5094575;28;20517;-85
2023/07/31 11:15:56;;;;;;;2.95;1.35;;;28.20;70.80;;;;;;5094184;28;20024;-84
2023/07/31 11:18:23;;;;;;;2.25;1.50;;;28.20;71.90;;;;;;5093874;28;20028;-84
2023/07/31 11:20:49;;;;;;;1.95;1.50;;;28.30;70.90;;;;;;5093498;28;20062;-84
2023/07/31 11:23:17;;;;;;;1.70;1.30;;;28.20;70.50;;;;;;5093481;28;20027;-84
2023/07/31 11:25:44;;;;;;;1.23;1.10;;;28.30;70.70;;;;;;5093258;28;20020;-84
2023/07/31 11:28:15;;;;;;;2.00;1.30;;;28.30;71.10;;;;;;5093442;28;20017;-84
2023/07/31 11:30:42;;;;;;;2.60;1.45;;;28.40;69.70;;;;;;5093282;28;20081;-84
2023/07/31 11:33:10;;;;;;;1.23;1.05;;;28.40;68.00;;;;;;5099377;28;20487;-84
2023/07/31 11:35:46;;;;;;;2.53;1.27;;;28.50;67.40;;;;;;5093864;28;20490;-84
2023/07/31 11:38:24;;;;;;;6.07;1.60;;;28.50;68.50;;;;;;5093436;28;20021;-84
2023/07/31 11:40:52;;;;;;;4.60;1.38;;;28.50;67.90;;;;;;5094026;28;20038;-84
2023/07/31 11:43:19;;;;;;;5.75;1.40;;;28.50;69.00;;;;;;5089604;28;20056;-85
2023/07/31 11:45:50;;;;;;;1.67;1.30;;;28.50;69.40;;;;;;5094165;28;20024;-84
2023/07/31 11:48:24;;;;;;;2.65;1.35;;;28.50;68.30;;;;;;5095173;28;20024;-84
2023/07/31 11:50:52;;;;;;;2.90;1.30;;;28.50;66.80;;;;;;5094828;28;20020;-84
2023/07/31 11:53:38;;;;;;;1.50;1.40;;;28.50;66.90;;;;;;5093403;28;20065;-85
2023/07/31 11:56:06;;;;;;;1.83;1.33;;;28.50;67.40;;;;;;5095203;28;20094;-85
2023/07/31 11:58:34;;;;;;;5.28;1.50;;;28.50;68.10;;;;;;5095953;28;20369;-85
2023/07/31 12:01:01;;;;;;;3.05;1.40;;;28.60;68.70;;;;;;5093944;28;20066;-85
2023/07/31 12:03:27;;;;;;;2.60;1.50;;;28.60;65.70;;;;;;5095262;28;20070;-85
2023/07/31 12:05:53;;;;;;;1.73;1.50;;;28.60;65.40;;;;;;5095650;28;20478;-85
2023/07/31 12:08:22;;;;;;;2.08;1.55;;;28.70;66.40;;;;;;5094440;28;20047;-86
2023/07/31 12:10:51;;;;;;;3.40;1.17;;;28.70;66.90;;;;;;5099109;28;20028;-85
2023/07/31 12:13:26;;;;;;;2.05;1.20;;;28.70;66.20;;;;;;5099239;28;20024;-85
2023/07/31 12:15:59;;;;;;;2.67;1.30;;;28.80;67.00;;;;;;5101743;28;20020;-85
2023/07/31 12:18:27;;;;;;;1.33;1.23;;;28.90;66.40;;;;;;5100566;28;20028;-84
2023/07/31 12:20:58;;;;;;;2.50;1.52;;;28.90;67.30;;;;;;5099291;28;20039;-84
2023/07/31 12:23:30;;;;;;;2.13;1.27;;;29.00;67.00;;;;;;5097618;28;20088;-85
2023/07/31 12:26:01;;;;;;;;;;;29.00;66.20;;;;;;5099562;28;20027;-84
2023/07/31 12:28:27;;;;;;;3.60;1.20;;;29.00;66.20;;;;;;5099411;28;19904;-85
2023/07/31 12:30:58;;;;;;;1.30;1.20;;;29.10;65.60;;;;;;5100156;28;20077;-84
2023/07/31 12:33:24;;;;;;;1.53;1.07;;;29.10;65.00;;;;;;5099002;28;20020;-85
2023/07/31 12:35:51;;;;;;;1.77;1.15;;;29.10;65.30;;;;;;5098212;28;20268;-84
2023/07/31 12:38:17;;;;;;;1.75;1.40;;;29.10;65.00;;;;;;5095925;28;20042;-85
2023/07/31 12:40:43;;;;;;;1.83;1.45;;;29.20;63.60;;;;;;5096130;28;20028;-85
2023/07/31 12:43:09;;;;;;;2.58;1.50;;;29.20;64.20;;;;;;5095559;28;20441;-86
2023/07/31 12:45:35;;;;;;;1.80;1.40;;;29.20;64.10;;;;;;5097309;28;20024;-85
2023/07/31 12:48:05;;;;;;;2.55;1.73;;;29.20;64.20;;;;;;5095578;28;20069;-86
2023/07/31 12:50:31;;;;;;;2.47;1.10;;;29.30;65.30;;;;;;5097110;28;20020;-85
2023/07/31 12:52:57;;;;;;;4.03;1.23;;;29.30;65.10;;;;;;5096334;28;20032;-84